createdAt,value
2019-05-22T00:04:54.388Z,26.00
2019-05-22T00:07:25.421Z,26.00
2019-05-22T00:09:57.631Z,26.00
2019-05-22T00:12:44.291Z,26.10
2019-05-22T00:15:03.477Z,26.00
2019-05-22T00:17:35.337Z,26.00
2019-05-22T00:20:07.578Z,25.90
2019-05-22T00:22:40.393Z,25.80
2019-05-22T00:25:13.102Z,25.80
2019-05-22T00:27:46.723Z,25.70
2019-05-22T00:30:19.362Z,25.70
2019-05-22T00:32:50.002Z,25.70
2019-05-22T00:35:23.904Z,25.70
2019-05-22T00:37:55.696Z,25.70
2019-05-22T00:40:29.073Z,25.70
2019-05-22T00:43:05.468Z,25.70
2019-05-22T00:45:34.429Z,25.70
2019-05-22T00:48:06.058Z,25.70
2019-05-22T00:50:39.042Z,25.70
2019-05-22T00:53:11.973Z,25.70
2019-05-22T00:55:44.762Z,25.80
2019-05-22T00:58:17.101Z,25.80
2019-05-22T01:00:48.240Z,25.80
2019-05-22T01:03:20.323Z,25.80
2019-05-22T01:05:52.628Z,25.70
2019-05-22T01:08:25.356Z,25.80
2019-05-22T01:10:57.716Z,25.80
2019-05-22T01:13:32.290Z,25.80
2019-05-22T01:16:04.207Z,25.80
2019-05-22T01:18:37.235Z,25.80
2019-05-22T01:21:09.124Z,25.90
2019-05-22T01:23:41.154Z,25.90
2019-05-22T01:26:14.453Z,25.90
2019-05-22T01:28:46.181Z,25.90
2019-05-22T01:31:18.802Z,25.80
2019-05-22T01:33:51.319Z,25.90
2019-05-22T01:36:23.578Z,25.90
2019-05-22T01:38:57.398Z,25.90
2019-05-22T01:41:31.672Z,25.90
2019-05-22T01:44:04.418Z,25.90
2019-05-22T01:46:35.558Z,25.90
2019-05-22T01:49:09.041Z,26.00
2019-05-22T01:51:43.412Z,25.90
2019-05-22T01:54:15.949Z,25.90
2019-05-22T01:56:47.342Z,25.90
2019-05-22T01:59:19.945Z,25.90
2019-05-22T02:01:50.997Z,25.90
2019-05-22T02:04:23.296Z,25.90
2019-05-22T02:06:54.346Z,26.00
2019-05-22T02:09:28.869Z,26.00
2019-05-22T02:12:02.141Z,26.00
2019-05-22T02:14:33.840Z,26.10
2019-05-22T02:17:06.910Z,26.10
2019-05-22T02:19:37.826Z,26.10
2019-05-22T02:22:11.559Z,26.10
2019-05-22T02:24:43.105Z,26.20
2019-05-22T02:27:15.126Z,26.20
2019-05-22T02:29:48.557Z,26.20
2019-05-22T02:32:22.269Z,26.20
2019-05-22T02:34:55.606Z,26.20
2019-05-22T02:37:28.033Z,26.20
2019-05-22T02:39:59.887Z,26.20
2019-05-22T02:42:32.210Z,26.20
2019-05-22T02:45:04.925Z,26.20
2019-05-22T02:47:39.436Z,26.20
2019-05-22T02:50:11.996Z,26.20
2019-05-22T02:52:44.037Z,26.20
2019-05-22T02:55:15.113Z,26.20
2019-05-22T02:57:46.903Z,26.20
2019-05-22T03:00:18.245Z,26.20
2019-05-22T03:02:52.274Z,26.20
2019-05-22T03:05:25.260Z,26.20
2019-05-22T03:07:57.720Z,26.20
2019-05-22T03:10:30.294Z,26.20
2019-05-22T03:13:02.857Z,26.20
2019-05-22T03:15:34.023Z,26.30
2019-05-22T03:18:07.195Z,26.20
2019-05-22T03:20:39.372Z,26.30
2019-05-22T03:23:12.568Z,26.30
2019-05-22T03:25:45.432Z,26.30
2019-05-22T03:28:19.674Z,26.30
2019-05-22T03:30:51.925Z,26.30
2019-05-22T03:33:23.849Z,26.30
2019-05-22T03:35:59.838Z,26.40
2019-05-22T03:38:39.249Z,26.40
2019-05-22T03:41:12.061Z,26.40
2019-05-22T03:43:46.401Z,26.50
2019-05-22T03:46:20.375Z,26.60
2019-05-22T03:48:52.616Z,26.60
2019-05-22T03:51:24.681Z,26.70
2019-05-22T03:53:56.186Z,26.80
2019-05-22T03:56:27.475Z,26.90
2019-05-22T03:58:59.334Z,27.00
2019-05-22T04:01:32.622Z,27.20
2019-05-22T04:04:06.284Z,27.30
2019-05-22T04:06:40.803Z,27.40
2019-05-22T04:09:15.220Z,27.50
2019-05-22T04:11:48.066Z,27.60
2019-05-22T04:14:19.727Z,27.70
2019-05-22T04:16:53.390Z,27.80
2019-05-22T04:19:25.595Z,27.80
2019-05-22T04:21:57.422Z,27.90
2019-05-22T04:24:28.573Z,28.00
2019-05-22T04:27:00.150Z,28.10
2019-05-22T04:29:32.160Z,28.20
2019-05-22T04:32:06.850Z,28.30
2019-05-22T04:34:39.893Z,28.40
2019-05-22T04:37:14.272Z,28.50
2019-05-22T04:39:49.541Z,28.50
2019-05-22T04:42:22.149Z,28.60
2019-05-22T04:44:55.848Z,28.60
2019-05-22T04:47:27.913Z,28.70
2019-05-22T04:50:07.663Z,28.70
2019-05-22T04:52:32.385Z,28.80
2019-05-22T04:55:08.557Z,28.90
2019-05-22T04:57:42.482Z,28.90
2019-05-22T05:00:15.964Z,29.00
2019-05-22T05:02:47.055Z,29.00
2019-05-22T05:05:23.054Z,29.00
2019-05-22T05:07:55.095Z,29.00
2019-05-22T05:10:26.365Z,29.10
2019-05-22T05:13:00.513Z,29.10
2019-05-22T05:15:31.909Z,29.10
2019-05-22T05:18:11.209Z,29.20
2019-05-22T05:20:47.344Z,29.30
2019-05-22T05:23:19.084Z,29.40
2019-05-22T05:25:56.978Z,29.50
2019-05-22T05:28:27.891Z,29.60
2019-05-22T05:31:00.834Z,29.70
2019-05-22T05:33:38.553Z,29.70
2019-05-22T05:36:10.458Z,29.80
2019-05-22T05:38:41.639Z,29.90
2019-05-22T05:41:12.702Z,30.00
2019-05-22T05:43:45.244Z,30.10
2019-05-22T05:46:16.817Z,30.20
2019-05-22T05:48:49.761Z,30.30
2019-05-22T05:51:19.953Z,30.40
2019-05-22T05:53:53.397Z,30.50
2019-05-22T05:56:24.413Z,30.50
2019-05-22T05:58:56.774Z,30.50
2019-05-22T06:01:29.524Z,30.60
2019-05-22T06:04:10.968Z,30.70
2019-05-22T06:06:41.700Z,30.70
2019-05-22T06:09:16.002Z,30.70
2019-05-22T06:11:49.443Z,30.70
2019-05-22T06:14:23.374Z,30.70
2019-05-22T06:16:56.507Z,30.70
2019-05-22T06:19:29.795Z,30.70
2019-05-22T06:22:01.796Z,30.60
2019-05-22T06:24:34.486Z,30.70
2019-05-22T06:27:08.997Z,30.70
2019-05-22T06:29:43.253Z,30.70
2019-05-22T06:32:17.840Z,30.70
2019-05-22T06:34:49.349Z,30.70
2019-05-22T06:37:22.713Z,30.70
2019-05-22T06:39:57.725Z,30.70
2019-05-22T06:42:29.113Z,30.80
2019-05-22T06:45:00.865Z,30.70
2019-05-22T06:47:32.529Z,30.80
2019-05-22T06:50:04.655Z,30.80
2019-05-22T06:52:35.915Z,30.80
2019-05-22T06:55:08.786Z,30.80
2019-05-22T06:57:41.505Z,30.90
2019-05-22T07:00:15.451Z,31.00
2019-05-22T07:02:47.640Z,31.00
2019-05-22T07:05:20.108Z,31.10
2019-05-22T07:07:51.833Z,31.10
2019-05-22T07:10:23.356Z,31.20
2019-05-22T07:12:54.402Z,31.30
2019-05-22T07:15:29.737Z,31.40
2019-05-22T07:18:01.011Z,31.40
2019-05-22T07:20:34.643Z,31.40
2019-05-22T07:23:07.545Z,31.50
2019-05-22T07:25:40.367Z,31.50
2019-05-22T07:28:11.434Z,31.50
2019-05-22T07:30:44.361Z,31.50
2019-05-22T07:33:15.730Z,31.50
2019-05-22T07:36:07.983Z,31.40
2019-05-22T07:38:20.681Z,31.50
2019-05-22T07:40:52.519Z,31.50
2019-05-22T07:43:23.821Z,31.50
2019-05-22T07:45:58.373Z,31.50
2019-05-22T07:48:30.154Z,31.50
2019-05-22T07:51:02.362Z,31.50
2019-05-22T07:53:33.299Z,31.60
2019-05-22T07:56:07.365Z,31.60
2019-05-22T07:58:38.802Z,31.70
2019-05-22T08:01:10.928Z,31.70
2019-05-22T08:03:45.005Z,31.80
2019-05-22T08:06:17.483Z,31.80
2019-05-22T08:08:50.633Z,31.80
2019-05-22T08:11:23.147Z,31.90
2019-05-22T08:13:55.030Z,31.90
2019-05-22T08:16:26.590Z,31.90
2019-05-22T08:18:58.597Z,32.00
2019-05-22T08:21:29.996Z,32.00
2019-05-22T08:24:01.261Z,32.00
2019-05-22T08:26:33.386Z,32.00
2019-05-22T08:29:06.180Z,32.00
2019-05-22T08:31:40.394Z,32.00
2019-05-22T08:34:14.469Z,32.00
2019-05-22T08:36:46.992Z,32.00
2019-05-22T08:39:36.483Z,32.00
2019-05-22T08:42:08.794Z,32.00
2019-05-22T08:44:48.295Z,32.10
2019-05-22T08:47:21.278Z,32.10
2019-05-22T08:49:52.949Z,32.10
2019-05-22T08:52:26.703Z,32.10
2019-05-22T08:55:18.019Z,32.10
2019-05-22T08:57:50.995Z,32.10
2019-05-22T09:00:27.919Z,32.10
2019-05-22T09:03:03.051Z,32.10
2019-05-22T09:05:34.818Z,32.10
2019-05-22T09:08:05.929Z,32.10
2019-05-22T09:10:37.888Z,32.10
2019-05-22T09:13:09.197Z,32.00
2019-05-22T09:15:42.277Z,32.00
2019-05-22T09:18:14.160Z,32.00
2019-05-22T09:20:49.158Z,32.10
2019-05-22T09:23:19.318Z,32.10
2019-05-22T09:25:51.238Z,32.10
2019-05-22T09:28:22.619Z,32.10
2019-05-22T09:30:53.595Z,32.20
2019-05-22T09:33:27.629Z,32.20
2019-05-22T09:35:59.042Z,32.20
2019-05-22T09:38:30.663Z,32.20
2019-05-22T09:41:03.699Z,32.30
2019-05-22T09:43:35.097Z,32.20
2019-05-22T09:46:26.264Z,32.20
2019-05-22T09:48:58.748Z,32.10
2019-05-22T09:51:29.655Z,32.20
2019-05-22T09:54:00.801Z,32.10
2019-05-22T09:56:32.185Z,32.10
2019-05-22T09:59:03.645Z,32.10
2019-05-22T10:01:34.478Z,32.10
2019-05-22T10:04:06.067Z,32.10
2019-05-22T10:06:38.007Z,32.10
2019-05-22T10:09:13.906Z,32.00
2019-05-22T10:11:44.817Z,32.00
2019-05-22T10:14:16.254Z,32.00
2019-05-22T10:16:47.352Z,31.90
2019-05-22T10:19:18.416Z,31.90
2019-05-22T10:21:51.283Z,31.80
2019-05-22T10:24:23.483Z,31.80
2019-05-22T10:26:55.106Z,31.80
2019-05-22T10:29:26.170Z,31.80
2019-05-22T10:31:57.274Z,31.70
2019-05-22T10:34:28.283Z,31.70
2019-05-22T10:36:59.999Z,31.70
2019-05-22T10:39:32.012Z,31.70
2019-05-22T10:42:02.875Z,31.70
2019-05-22T10:44:34.080Z,31.60
2019-05-22T10:47:05.556Z,31.60
2019-05-22T10:49:36.440Z,31.60
2019-05-22T10:52:07.624Z,31.50
2019-05-22T10:54:38.591Z,31.50
2019-05-22T10:57:11.134Z,31.50
2019-05-22T10:59:42.116Z,31.50
2019-05-22T11:02:13.272Z,31.40
2019-05-22T11:04:44.273Z,31.40
2019-05-22T11:07:16.520Z,31.40
2019-05-22T11:09:47.581Z,31.30
2019-05-22T11:12:19.703Z,31.30
2019-05-22T11:14:50.834Z,31.20
2019-05-22T11:17:22.048Z,31.20
2019-05-22T11:19:52.976Z,31.20
2019-05-22T11:22:23.673Z,31.20
2019-05-22T11:24:55.344Z,31.10
2019-05-22T11:27:26.299Z,31.10
2019-05-22T11:29:57.331Z,31.00
2019-05-22T11:32:28.089Z,30.90
2019-05-22T11:34:59.016Z,30.90
2019-05-22T11:37:29.890Z,30.80
2019-05-22T11:40:01.017Z,30.80
2019-05-22T11:42:32.072Z,30.70
2019-05-22T11:45:03.081Z,30.70
2019-05-22T11:47:34.439Z,30.70
2019-05-22T11:50:06.449Z,30.60
2019-05-22T11:52:37.768Z,30.60
2019-05-22T11:55:09.592Z,30.50
2019-05-22T11:57:41.485Z,30.40
2019-05-22T12:00:13.393Z,30.40
2019-05-22T12:02:46.466Z,30.40
2019-05-22T12:05:18.207Z,30.30
2019-05-22T12:07:49.969Z,30.30
2019-05-22T12:10:24.122Z,30.30
2019-05-22T12:12:56.203Z,30.20
2019-05-22T12:15:29.599Z,30.20
2019-05-22T12:18:00.847Z,30.20
2019-05-22T12:20:32.785Z,30.10
2019-05-22T12:23:04.054Z,30.10
2019-05-22T12:25:35.090Z,30.10
2019-05-22T12:28:06.950Z,30.00
2019-05-22T12:30:38.225Z,30.00
2019-05-22T12:33:14.005Z,29.90
2019-05-22T12:35:44.454Z,29.90
2019-05-22T12:38:16.043Z,29.90
2019-05-22T12:40:47.825Z,29.80
2019-05-22T12:43:19.114Z,29.80
2019-05-22T12:45:50.371Z,29.80
2019-05-22T12:48:21.083Z,29.80
2019-05-22T12:50:53.219Z,29.70
2019-05-22T12:53:24.876Z,29.70
2019-05-22T12:55:56.544Z,29.70
2019-05-22T12:58:27.792Z,29.70
2019-05-22T13:00:59.919Z,29.60
2019-05-22T13:03:31.929Z,29.60
2019-05-22T13:06:03.239Z,29.60
2019-05-22T13:08:34.510Z,29.60
2019-05-22T13:11:05.726Z,29.50
2019-05-22T13:13:37.409Z,29.50
2019-05-22T13:16:09.570Z,29.50
2019-05-22T13:18:42.005Z,29.50
2019-05-22T13:21:15.163Z,29.50
2019-05-22T13:23:46.884Z,29.50
2019-05-22T13:26:18.956Z,29.40
2019-05-22T13:28:51.312Z,29.40
2019-05-22T13:31:22.381Z,29.40
2019-05-22T13:33:54.487Z,29.40
2019-05-22T13:36:25.882Z,29.40
2019-05-22T13:38:56.739Z,29.40
2019-05-22T13:41:27.602Z,29.40
2019-05-22T13:43:58.584Z,29.30
2019-05-22T13:46:29.735Z,29.30
2019-05-22T13:49:00.545Z,29.30
2019-05-22T13:51:31.764Z,29.20
2019-05-22T13:54:02.899Z,29.20
2019-05-22T13:56:34.054Z,29.20
2019-05-22T13:59:05.757Z,29.20
2019-05-22T14:01:36.671Z,29.10
2019-05-22T14:04:07.993Z,29.10
2019-05-22T14:06:39.854Z,29.10
2019-05-22T14:09:12.473Z,29.10
2019-05-22T14:11:44.291Z,29.10
2019-05-22T14:14:15.371Z,29.00
2019-05-22T14:16:49.128Z,29.10
2019-05-22T14:19:18.929Z,29.10
2019-05-22T14:21:51.830Z,29.00
2019-05-22T14:24:23.001Z,29.10
2019-05-22T14:26:54.032Z,29.00
2019-05-22T14:29:24.515Z,29.00
2019-05-22T14:31:56.883Z,29.00
2019-05-22T14:34:28.065Z,28.90
2019-05-22T14:36:59.043Z,28.90
2019-05-22T14:39:30.811Z,28.90
2019-05-22T14:42:02.240Z,28.90
2019-05-22T14:44:34.145Z,28.80
2019-05-22T14:47:14.616Z,28.80
2019-05-22T14:49:38.118Z,28.80
2019-05-22T14:52:08.951Z,28.70
2019-05-22T14:54:40.038Z,28.80
2019-05-22T14:57:11.357Z,28.80
2019-05-22T14:59:42.525Z,28.70
2019-05-22T15:02:13.572Z,28.70
2019-05-22T15:04:45.051Z,28.70
2019-05-22T15:07:16.014Z,28.60
2019-05-22T15:09:46.995Z,28.70
2019-05-22T15:12:17.972Z,28.70
2019-05-22T15:14:49.337Z,28.60
2019-05-22T15:17:31.821Z,28.70
2019-05-22T15:19:53.187Z,28.70
2019-05-22T15:22:24.598Z,28.60
2019-05-22T15:24:55.848Z,28.60
2019-05-22T15:27:27.111Z,28.70
2019-05-22T15:29:58.064Z,28.70
2019-05-22T15:32:29.117Z,28.60
2019-05-22T15:34:59.998Z,28.60
2019-05-22T15:37:30.972Z,28.60
2019-05-22T15:40:02.685Z,28.60
2019-05-22T15:42:36.761Z,28.60
2019-05-22T15:45:10.224Z,28.60
2019-05-22T15:47:54.691Z,28.60
2019-05-22T15:50:18.932Z,28.60
2019-05-22T15:52:52.443Z,28.60
2019-05-22T15:55:26.045Z,28.60
2019-05-22T15:57:59.959Z,28.50
2019-05-22T16:00:35.623Z,28.50
2019-05-22T16:03:08.852Z,28.50
2019-05-22T16:05:41.666Z,28.50
2019-05-22T16:08:14.342Z,28.50
2019-05-22T16:10:46.464Z,28.50
2019-05-22T16:13:19.935Z,28.50
2019-05-22T16:15:53.077Z,28.40
2019-05-22T16:18:26.692Z,28.40
2019-05-22T16:20:58.711Z,28.40
2019-05-22T16:23:32.024Z,28.40
2019-05-22T16:26:06.196Z,28.40
2019-05-22T16:28:39.863Z,28.40
2019-05-22T16:31:13.254Z,28.40
2019-05-22T16:33:45.745Z,28.40
2019-05-22T16:36:18.524Z,28.40
2019-05-22T16:38:50.049Z,28.40
2019-05-22T16:41:21.925Z,28.40
2019-05-22T16:43:53.235Z,28.40
2019-05-22T16:46:25.293Z,28.40
2019-05-22T16:48:57.025Z,28.40
2019-05-22T16:51:29.929Z,28.40
2019-05-22T16:54:02.789Z,28.30
2019-05-22T16:56:34.871Z,28.40
2019-05-22T16:59:06.181Z,28.40
2019-05-22T17:01:57.052Z,28.40
2019-05-22T17:04:09.854Z,28.40
2019-05-22T17:06:42.079Z,28.40
2019-05-22T17:09:14.897Z,28.40
2019-05-22T17:11:46.111Z,28.40
2019-05-22T17:14:18.541Z,28.30
2019-05-22T17:16:51.015Z,28.30
2019-05-22T17:19:27.174Z,28.20
2019-05-22T17:21:54.950Z,28.20
2019-05-22T17:24:26.300Z,28.10
2019-05-22T17:26:58.579Z,28.10
2019-05-22T17:29:29.916Z,28.10
2019-05-22T17:32:01.076Z,28.10
2019-05-22T17:34:33.190Z,28.10
2019-05-22T17:37:07.394Z,28.10
2019-05-22T17:39:40.388Z,28.20
2019-05-22T17:42:13.905Z,28.20
2019-05-22T17:44:47.640Z,28.10
2019-05-22T17:47:20.466Z,28.20
2019-05-22T17:49:52.132Z,28.20
2019-05-22T17:52:24.461Z,28.20
2019-05-22T17:54:56.277Z,28.20
2019-05-22T17:57:27.721Z,28.20
2019-05-22T17:59:59.254Z,28.20
2019-05-22T18:02:31.707Z,28.20
2019-05-22T18:05:06.533Z,28.20
2019-05-22T18:07:36.491Z,28.20
2019-05-22T18:10:10.442Z,28.20
2019-05-22T18:12:42.690Z,28.20
2019-05-22T18:15:16.386Z,28.20
2019-05-22T18:17:47.591Z,28.20
2019-05-22T18:20:20.084Z,28.10
2019-05-22T18:22:50.868Z,28.10
2019-05-22T18:25:22.235Z,28.10
2019-05-22T18:27:53.626Z,28.10
2019-05-22T18:30:25.598Z,28.10
2019-05-22T18:32:56.280Z,28.20
2019-05-22T18:35:27.866Z,28.20
2019-05-22T18:37:58.817Z,28.20
2019-05-22T18:40:29.801Z,28.20
2019-05-22T18:43:00.756Z,28.20
2019-05-22T18:45:32.749Z,28.10
2019-05-22T18:48:04.197Z,28.10
2019-05-22T18:50:35.672Z,28.00
2019-05-22T18:53:07.087Z,27.90
2019-05-22T18:55:37.942Z,27.90
2019-05-22T18:58:08.782Z,27.90
2019-05-22T19:00:40.282Z,27.80
2019-05-22T19:03:11.778Z,27.90
2019-05-22T19:05:43.906Z,27.80
2019-05-22T19:08:14.717Z,27.80
2019-05-22T19:10:45.963Z,27.80
2019-05-22T19:13:16.934Z,27.80
2019-05-22T19:15:47.779Z,27.70
2019-05-22T19:18:18.634Z,27.70
2019-05-22T19:20:49.684Z,27.70
2019-05-22T19:23:20.844Z,27.70
2019-05-22T19:25:51.988Z,27.70
2019-05-22T19:28:23.024Z,27.60
2019-05-22T19:30:53.878Z,27.60
2019-05-22T19:33:24.821Z,27.60
2019-05-22T19:35:55.794Z,27.60
2019-05-22T19:38:27.109Z,27.50
2019-05-22T19:40:58.353Z,27.60
2019-05-22T19:43:29.204Z,27.50
2019-05-22T19:46:00.229Z,27.50
2019-05-22T19:48:31.194Z,27.60
2019-05-22T19:51:02.202Z,27.60
2019-05-22T19:53:34.281Z,27.60
2019-05-22T19:56:08.000Z,27.60
2019-05-22T19:58:38.489Z,27.60
2019-05-22T20:01:09.360Z,27.60
2019-05-22T20:03:40.426Z,27.60
2019-05-22T20:06:12.928Z,27.60
2019-05-22T20:08:44.671Z,27.60
2019-05-22T20:11:15.306Z,27.70
2019-05-22T20:13:46.756Z,27.70
2019-05-22T20:16:17.738Z,27.70
2019-05-22T20:18:48.941Z,27.70
2019-05-22T20:21:19.961Z,27.70
2019-05-22T20:23:50.814Z,27.80
2019-05-22T20:26:22.321Z,27.80
2019-05-22T20:28:53.270Z,27.80
2019-05-22T20:31:24.224Z,27.80
2019-05-22T20:33:55.094Z,27.80
2019-05-22T20:36:26.453Z,27.80
2019-05-22T20:38:57.528Z,27.80
2019-05-22T20:41:28.421Z,27.90
2019-05-22T20:44:01.920Z,27.80
2019-05-22T20:46:37.402Z,27.80
2019-05-22T20:49:07.533Z,27.80
2019-05-22T20:51:39.416Z,27.80
2019-05-22T20:54:10.261Z,27.80
2019-05-22T20:56:42.440Z,27.70
2019-05-22T20:59:14.054Z,27.70
2019-05-22T21:01:44.844Z,27.70
2019-05-22T21:04:17.502Z,27.70
2019-05-22T21:06:51.499Z,27.70
2019-05-22T21:09:22.675Z,27.70
2019-05-22T21:11:54.625Z,27.70
2019-05-22T21:14:25.795Z,27.70
2019-05-22T21:16:56.753Z,27.70
2019-05-22T21:19:28.353Z,27.70
2019-05-22T21:22:01.062Z,27.70
2019-05-22T21:24:32.238Z,27.70
2019-05-22T21:27:03.062Z,27.70
2019-05-22T21:29:34.631Z,27.70
2019-05-22T21:32:06.991Z,27.70
2019-05-22T21:34:39.684Z,27.70
2019-05-22T21:37:11.460Z,27.70
2019-05-22T21:39:43.388Z,27.70
2019-05-22T21:42:14.310Z,27.70
2019-05-22T21:44:45.178Z,27.70
2019-05-22T21:47:16.010Z,27.70
2019-05-22T21:49:46.782Z,27.70
2019-05-22T21:52:17.938Z,27.70
2019-05-22T21:54:49.586Z,27.70
2019-05-22T21:57:21.449Z,27.70
2019-05-22T21:59:52.731Z,27.70
2019-05-22T22:02:27.215Z,27.70
2019-05-22T22:04:58.075Z,27.60
2019-05-22T22:07:30.888Z,27.60
2019-05-22T22:10:01.704Z,27.60
2019-05-22T22:12:33.685Z,27.60
2019-05-22T22:15:06.105Z,27.60
2019-05-22T22:17:38.561Z,27.60
2019-05-22T22:20:10.214Z,27.60
2019-05-22T22:22:42.775Z,27.60
2019-05-22T22:25:15.247Z,27.60
2019-05-22T22:27:46.568Z,27.60
